Time;durP1;ratioP1;P1;durP2;ratioP2;P2;SDS_P1;SDS_P2;PMS_P1;PMS_P2;Temp;Humidity;BMP_temperature;BMP_pressure;BME280_temperature;BME280_humidity;BME280_pressure;Samples;Min_cycle;Max_cycle;Signal;HPM_P1;HPM_P2
2022/01/05 00:01:54;;;;;;;19.47;7.40;;;5.10;99.90;;;;;;5008240;28;20231;-89
2022/01/05 00:04:21;;;;;;;22.93;7.33;;;4.60;99.90;;;;;;5024281;28;20210;-89
2022/01/05 00:06:48;;;;;;;21.03;6.97;;;4.70;99.90;;;;;;5006305;28;20215;-89
2022/01/05 00:09:16;;;;;;;17.13;6.53;;;4.70;99.90;;;;;;5011389;28;20380;-87
2022/01/05 00:11:43;;;;;;;16.10;5.83;;;4.70;99.90;;;;;;5010074;28;20334;-88
2022/01/05 00:14:10;;;;;;;20.97;6.33;;;4.70;99.90;;;;;;5012123;28;20215;-88
2022/01/05 00:16:37;;;;;;;15.17;4.90;;;4.70;99.90;;;;;;5024541;28;20293;-87
2022/01/05 00:19:04;;;;;;;18.97;5.87;;;5.10;99.90;;;;;;5011383;28;20214;-88
2022/01/05 00:21:31;;;;;;;18.97;4.97;;;4.80;99.90;;;;;;5011903;28;20245;-87
2022/01/05 00:23:58;;;;;;;18.50;4.53;;;4.80;99.90;;;;;;5011243;28;20219;-87
2022/01/05 00:26:27;;;;;;;16.27;5.00;;;4.70;99.90;;;;;;5008719;28;20214;-89
2022/01/05 00:28:55;;;;;;;19.60;5.10;;;4.80;99.90;;;;;;5020332;28;20229;-88
2022/01/05 00:31:23;;;;;;;16.33;4.30;;;5.30;99.90;;;;;;5018897;28;20632;-89
2022/01/05 00:33:52;;;;;;;18.10;4.50;;;5.30;99.90;;;;;;5029565;28;20675;-88
2022/01/05 00:36:21;;;;;;;25.47;4.63;;;4.70;99.90;;;;;;5029945;28;20225;-89
2022/01/05 00:38:48;;;;;;;15.67;4.23;;;5.00;99.90;;;;;;5028241;28;20670;-87
2022/01/05 00:41:15;;;;;;;16.67;4.43;;;7.80;99.90;;;;;;5001891;28;20237;-89
2022/01/05 00:43:43;;;;;;;15.67;4.53;;;6.50;99.90;;;;;;5017099;28;20218;-89
2022/01/05 00:46:10;;;;;;;16.77;4.33;;;4.60;99.90;;;;;;5030479;28;20222;-90
2022/01/05 00:48:38;;;;;;;15.37;4.30;;;4.60;99.90;;;;;;5016938;28;20218;-89
2022/01/05 00:51:06;;;;;;;23.23;5.17;;;4.60;99.90;;;;;;5017768;28;20805;-90
2022/01/05 00:53:34;;;;;;;15.67;4.00;;;4.60;99.90;;;;;;5027165;28;20247;-88
2022/01/05 00:56:01;;;;;;;17.30;3.70;;;4.60;99.90;;;;;;5021751;28;20688;-88
2022/01/05 00:58:28;;;;;;;16.47;4.57;;;4.50;99.90;;;;;;5023771;28;20214;-87
2022/01/05 01:00:57;;;;;;;13.67;3.57;;;4.50;99.90;;;;;;5033170;28;20229;-87
2022/01/05 01:03:26;;;;;;;19.40;4.87;;;4.50;99.90;;;;;;5030631;28;20221;-88
2022/01/05 01:05:53;;;;;;;15.43;3.53;;;4.50;99.90;;;;;;5043142;28;20217;-88
2022/01/05 01:08:20;;;;;;;16.50;3.97;;;4.40;99.90;;;;;;5021375;28;20225;-88
2022/01/05 01:10:49;;;;;;;17.47;4.50;;;4.40;99.90;;;;;;5032862;28;20278;-87
2022/01/05 01:13:17;;;;;;;20.77;5.90;;;4.80;99.90;;;;;;5020775;28;20213;-87
2022/01/05 01:15:44;;;;;;;30.67;7.20;;;4.40;99.90;;;;;;5018254;28;20289;-87
2022/01/05 01:18:12;;;;;;;23.27;7.13;;;4.40;99.90;;;;;;5014443;28;20659;-87
2022/01/05 01:20:39;;;;;;;21.00;6.40;;;4.50;99.90;;;;;;5022910;28;20227;-87
2022/01/05 01:23:06;;;;;;;38.30;10.23;;;4.50;99.90;;;;;;5011988;28;20202;-88
2022/01/05 01:25:34;;;;;;;34.43;11.17;;;4.60;99.90;;;;;;5007102;28;20573;-87
2022/01/05 01:28:02;;;;;;;16.23;6.97;;;4.50;99.90;;;;;;5012775;28;20211;-87
2022/01/05 01:30:31;;;;;;;30.13;9.50;;;4.40;99.90;;;;;;5023532;28;20229;-88
2022/01/05 01:32:58;;;;;;;24.47;7.73;;;4.40;99.90;;;;;;5006913;28;20210;-89
2022/01/05 01:35:27;;;;;;;23.90;7.60;;;4.40;99.90;;;;;;5013226;28;20210;-89
2022/01/05 01:37:54;;;;;;;20.37;5.83;;;4.40;99.90;;;;;;5020914;28;20194;-89
2022/01/05 01:40:24;;;;;;;17.03;5.43;;;4.40;99.90;;;;;;5019801;28;20683;-89
2022/01/05 01:42:51;;;;;;;19.63;6.17;;;4.40;99.90;;;;;;5012055;28;20222;-89
2022/01/05 01:45:18;;;;;;;22.50;6.70;;;4.30;99.90;;;;;;5025930;28;20226;-90
2022/01/05 01:47:46;;;;;;;22.23;7.20;;;4.30;99.90;;;;;;5015054;28;20592;-88
2022/01/05 01:50:13;;;;;;;22.03;6.70;;;4.30;99.90;;;;;;5009256;28;20302;-89
2022/01/05 01:52:41;;;;;;;18.27;6.50;;;4.30;99.90;;;;;;5014307;28;20218;-91
2022/01/05 01:55:11;;;;;;;14.13;5.13;;;4.30;99.90;;;;;;5039105;28;20213;-90
2022/01/05 01:57:42;;;;;;;15.07;4.87;;;4.30;99.90;;;;;;5031740;28;20230;-89
2022/01/05 02:00:10;;;;;;;17.70;5.40;;;4.30;99.90;;;;;;5013312;28;20238;-89
2022/01/05 02:02:39;;;;;;;18.13;5.63;;;4.30;99.90;;;;;;5012671;28;20281;-89
2022/01/05 02:05:08;;;;;;;21.30;6.43;;;4.30;99.90;;;;;;5010565;28;20207;-89
2022/01/05 02:07:34;;;;;;;35.17;6.80;;;4.30;99.90;;;;;;5009262;28;20206;-89
2022/01/05 02:10:05;;;;;;;28.93;7.83;;;4.20;99.90;;;;;;5011673;28;20207;-89
2022/01/05 02:12:32;;;;;;;24.17;8.07;;;4.20;99.90;;;;;;5008943;28;20736;-89
2022/01/05 02:14:59;;;;;;;21.50;5.83;;;4.20;99.90;;;;;;5011330;28;20199;-88
2022/01/05 02:17:42;;;;;;;13.70;5.57;;;4.10;99.90;;;;;;5013510;28;20221;-89
2022/01/05 02:20:14;;;;;;;26.70;9.53;;;4.10;99.90;;;;;;5006604;28;20746;-89
2022/01/05 02:22:42;;;;;;;26.83;8.83;;;4.00;99.90;;;;;;5024270;28;20250;-87
2022/01/05 02:25:09;;;;;;;29.30;9.40;;;4.30;99.90;;;;;;5009642;28;20574;-87
2022/01/05 02:27:39;;;;;;;27.17;7.63;;;3.90;99.90;;;;;;5007879;28;20215;-88
2022/01/05 02:30:07;;;;;;;19.73;6.93;;;3.80;99.90;;;;;;5012453;28;20215;-87
2022/01/05 02:32:34;;;;;;;32.83;11.20;;;3.80;99.90;;;;;;5007934;28;20233;-87
2022/01/05 02:35:01;;;;;;;30.50;9.43;;;3.80;99.90;;;;;;5022542;28;20215;-86
2022/01/05 02:37:28;;;;;;;28.93;9.77;;;3.80;99.90;;;;;;5007478;28;20207;-87
2022/01/05 02:39:56;;;;;;;35.80;10.87;;;3.80;99.90;;;;;;5008547;28;20222;-87
2022/01/05 02:42:27;;;;;;;39.83;12.47;;;3.70;99.90;;;;;;5011355;28;20862;-88
2022/01/05 02:44:54;;;;;;;43.87;11.17;;;3.70;99.90;;;;;;5022470;28;20214;-87
2022/01/05 02:47:21;;;;;;;30.17;9.47;;;3.70;99.90;;;;;;5015034;28;20219;-87
2022/01/05 02:49:48;;;;;;;24.70;9.40;;;4.20;99.90;;;;;;5011193;28;20210;-87
2022/01/05 02:52:16;;;;;;;36.97;9.23;;;4.30;99.90;;;;;;5023027;28;20745;-87
2022/01/05 02:54:43;;;;;;;44.70;12.70;;;3.60;99.90;;;;;;5007641;28;20214;-88
2022/01/05 02:57:11;;;;;;;39.33;11.30;;;4.70;99.90;;;;;;5010287;28;20214;-88
2022/01/05 02:59:38;;;;;;;32.40;9.00;;;5.90;99.90;;;;;;5002734;28;20230;-87
2022/01/05 03:02:05;;;;;;;30.83;9.43;;;3.60;99.90;;;;;;5005949;28;20234;-87
2022/01/05 03:04:32;;;;;;;25.07;8.37;;;3.50;99.90;;;;;;5004014;28;20219;-88
2022/01/05 03:07:00;;;;;;;32.77;8.90;;;3.50;99.90;;;;;;5009519;28;20220;-87
2022/01/05 03:09:28;;;;;;;30.87;9.63;;;3.40;99.90;;;;;;5020874;28;20225;-88
2022/01/05 03:11:55;;;;;;;34.90;10.97;;;5.50;99.90;;;;;;5012833;28;20234;-87
2022/01/05 03:14:23;;;;;;;31.53;10.27;;;3.40;99.90;;;;;;5007014;28;20221;-87
2022/01/05 03:16:50;;;;;;;37.13;11.67;;;3.40;99.90;;;;;;5008378;28;20572;-90
2022/01/05 03:19:17;;;;;;;38.77;10.97;;;3.40;99.90;;;;;;5024155;28;20226;-88
2022/01/05 03:21:44;;;;;;;27.07;9.13;;;3.30;99.90;;;;;;5008939;28;20255;-88
2022/01/05 03:24:11;;;;;;;31.20;9.73;;;3.30;99.90;;;;;;5009343;28;20202;-88
2022/01/05 03:26:38;;;;;;;30.97;10.90;;;4.10;99.90;;;;;;5009936;28;20226;-88
2022/01/05 03:29:05;;;;;;;43.57;12.23;;;3.30;99.90;;;;;;5008112;28;20211;-87
2022/01/05 03:31:33;;;;;;;29.87;10.70;;;3.20;99.90;;;;;;5005311;28;20234;-87
2022/01/05 03:34:00;;;;;;;34.70;9.63;;;3.20;99.90;;;;;;5008692;28;20273;-86
2022/01/05 03:36:27;;;;;;;36.47;11.77;;;5.60;99.90;;;;;;5011844;28;20222;-87
2022/01/05 03:38:54;;;;;;;24.73;9.33;;;3.80;99.90;;;;;;5008563;28;20597;-87
2022/01/05 03:41:21;;;;;;;23.47;8.37;;;3.10;99.90;;;;;;5008191;28;20643;-87
2022/01/05 03:43:48;;;;;;;31.90;10.77;;;3.10;99.90;;;;;;4997023;28;20297;-88
2022/01/05 03:46:15;;;;;;;30.97;9.67;;;3.10;99.90;;;;;;5002047;28;20298;-86
2022/01/05 03:48:43;;;;;;;33.97;10.27;;;3.10;99.90;;;;;;5016605;28;20225;-87
2022/01/05 03:51:10;;;;;;;19.53;7.50;;;3.10;99.90;;;;;;5009437;28;20317;-86
2022/01/05 03:53:37;;;;;;;22.50;7.30;;;4.00;99.90;;;;;;5021014;28;20751;-87
2022/01/05 03:56:04;;;;;;;29.67;7.27;;;3.20;99.90;;;;;;5013158;28;20206;-87
2022/01/05 03:58:31;;;;;;;20.90;7.07;;;3.10;99.90;;;;;;5012453;28;20837;-87
2022/01/05 04:00:58;;;;;;;27.03;7.17;;;3.10;99.90;;;;;;5023071;28;20238;-87
2022/01/05 04:03:26;;;;;;;16.77;5.13;;;3.10;99.90;;;;;;5007154;28;20682;-87
2022/01/05 04:05:54;;;;;;;33.97;7.00;;;3.00;99.90;;;;;;5006879;28;20550;-87
2022/01/05 04:08:21;;;;;;;24.90;7.00;;;3.10;99.90;;;;;;5022435;28;20229;-87
2022/01/05 04:10:48;;;;;;;18.83;5.57;;;3.10;99.90;;;;;;5010528;28;20241;-86
2022/01/05 04:13:16;;;;;;;26.70;6.83;;;3.00;99.90;;;;;;5002818;28;20233;-87
2022/01/05 04:15:43;;;;;;;16.70;5.23;;;3.00;99.90;;;;;;5014981;28;20316;-87
2022/01/05 04:18:09;;;;;;;21.60;6.13;;;3.00;99.90;;;;;;5007114;28;20202;-86
2022/01/05 04:20:36;;;;;;;28.20;7.37;;;3.00;99.90;;;;;;5000702;28;20231;-89
2022/01/05 04:23:05;;;;;;;20.70;5.60;;;2.90;99.90;;;;;;5022572;28;20206;-87
2022/01/05 04:25:33;;;;;;;20.60;5.73;;;2.90;99.90;;;;;;5022341;28;20214;-88
2022/01/05 04:28:00;;;;;;;21.80;6.27;;;4.10;99.90;;;;;;5009098;28;20627;-87
2022/01/05 04:30:27;;;;;;;32.20;5.53;;;2.90;99.90;;;;;;5006138;28;20215;-87
2022/01/05 04:32:54;;;;;;;22.93;5.47;;;2.90;99.90;;;;;;5019541;28;20239;-87
2022/01/05 04:35:20;;;;;;;20.27;5.47;;;2.90;99.90;;;;;;5020307;28;20260;-87
2022/01/05 04:37:48;;;;;;;22.13;5.23;;;2.90;99.90;;;;;;5007709;28;20211;-88
2022/01/05 04:40:17;;;;;;;28.70;6.13;;;2.90;99.90;;;;;;5016533;28;20226;-87
2022/01/05 04:42:44;;;;;;;16.53;5.10;;;3.00;99.90;;;;;;5006487;28;20260;-88
2022/01/05 04:45:11;;;;;;;28.50;7.77;;;3.10;99.90;;;;;;5002634;28;20749;-87
2022/01/05 04:47:37;;;;;;;28.40;7.03;;;3.40;99.90;;;;;;5005944;28;20210;-87
2022/01/05 04:50:05;;;;;;;19.67;6.50;;;3.30;99.90;;;;;;5017093;28;20202;-88
2022/01/05 04:52:32;;;;;;;29.23;7.37;;;3.40;99.90;;;;;;5025913;28;20230;-88
2022/01/05 04:54:59;;;;;;;24.73;6.77;;;4.10;99.90;;;;;;5006485;28;20675;-87
2022/01/05 04:57:27;;;;;;;27.13;6.60;;;3.40;99.90;;;;;;5005513;28;20257;-87
2022/01/05 04:59:54;;;;;;;18.63;5.77;;;3.40;99.90;;;;;;5006109;28;20582;-88
2022/01/05 05:02:21;;;;;;;28.37;6.00;;;3.30;99.90;;;;;;5022608;28;20732;-86
2022/01/05 05:04:48;;;;;;;24.67;6.00;;;3.20;99.90;;;;;;5006103;28;20222;-86
2022/01/05 05:07:15;;;;;;;22.37;5.33;;;3.10;99.90;;;;;;5001852;28;20225;-87
2022/01/05 05:09:41;;;;;;;19.60;6.70;;;3.00;99.90;;;;;;5021181;28;20211;-87
2022/01/05 05:12:10;;;;;;;25.70;7.20;;;3.00;99.90;;;;;;5006922;28;20229;-87
2022/01/05 05:14:38;;;;;;;23.07;6.47;;;2.90;99.90;;;;;;4999488;28;20510;-87
2022/01/05 05:17:05;;;;;;;31.10;8.43;;;2.90;99.90;;;;;;5014935;28;20214;-87
2022/01/05 05:19:32;;;;;;;30.03;8.27;;;2.90;99.90;;;;;;5003493;28;20218;-88
2022/01/05 05:21:59;;;;;;;29.57;6.87;;;3.00;99.90;;;;;;5007199;28;20698;-86
2022/01/05 05:24:26;;;;;;;22.43;6.33;;;3.10;99.90;;;;;;5018753;28;20221;-87
2022/01/05 05:26:53;;;;;;;20.90;6.23;;;3.20;99.90;;;;;;5014826;28;20221;-86
2022/01/05 05:29:20;;;;;;;26.27;6.87;;;3.30;99.90;;;;;;5004178;28;20222;-87
2022/01/05 05:31:48;;;;;;;32.97;8.13;;;3.30;99.90;;;;;;5018753;28;20292;-87
2022/01/05 05:34:15;;;;;;;28.13;6.87;;;3.40;99.90;;;;;;5017048;28;20222;-87
2022/01/05 05:36:42;;;;;;;30.13;6.40;;;3.40;99.90;;;;;;4999563;28;20694;-86
2022/01/05 05:39:09;;;;;;;21.33;5.90;;;5.10;99.90;;;;;;5011666;28;20215;-86
2022/01/05 05:41:36;;;;;;;23.70;6.03;;;3.50;99.90;;;;;;5020263;28;20357;-87
2022/01/05 05:44:02;;;;;;;20.67;6.07;;;4.30;99.90;;;;;;5006039;28;20284;-87
2022/01/05 05:46:29;;;;;;;24.63;6.53;;;3.50;99.90;;;;;;4995193;28;20561;-87
2022/01/05 05:48:57;;;;;;;23.60;5.67;;;4.60;99.90;;;;;;5018635;28;20257;-87
2022/01/05 05:51:25;;;;;;;26.53;7.20;;;3.30;99.90;;;;;;5004863;28;20234;-86
2022/01/05 05:53:52;;;;;;;23.83;6.70;;;3.60;99.90;;;;;;5019877;28;20218;-88
2022/01/05 05:56:19;;;;;;;25.57;6.33;;;3.60;99.90;;;;;;5014022;28;20211;-87
2022/01/05 05:58:46;;;;;;;23.57;7.17;;;3.60;99.90;;;;;;5011115;28;20198;-88
2022/01/05 06:01:13;;;;;;;30.00;7.17;;;3.60;99.90;;;;;;5048457;28;20232;-89
2022/01/05 06:03:40;;;;;;;24.97;7.23;;;3.60;99.90;;;;;;5032145;28;20191;-89
2022/01/05 06:06:08;;;;;;;23.37;6.60;;;3.60;99.90;;;;;;5016795;28;20637;-87
2022/01/05 06:08:35;;;;;;;21.77;6.53;;;3.60;99.90;;;;;;5018999;28;20211;-87
2022/01/05 06:11:03;;;;;;;19.73;6.83;;;3.60;99.90;;;;;;5023999;28;20775;-87
2022/01/05 06:13:30;;;;;;;20.53;6.40;;;3.60;99.90;;;;;;5020797;28;20219;-88
2022/01/05 06:15:57;;;;;;;22.20;5.77;;;3.60;99.90;;;;;;5008288;28;20290;-87
2022/01/05 06:18:23;;;;;;;19.43;5.73;;;3.60;99.90;;;;;;5016565;28;20608;-88
2022/01/05 06:20:50;;;;;;;21.63;6.00;;;3.60;99.90;;;;;;5029738;28;20748;-87
2022/01/05 06:23:18;;;;;;;22.33;5.83;;;3.60;99.90;;;;;;5010460;28;20226;-87
2022/01/05 06:25:45;;;;;;;24.20;6.40;;;3.60;99.90;;;;;;5010787;28;20775;-88
2022/01/05 06:28:12;;;;;;;19.90;4.70;;;3.60;99.90;;;;;;5016897;28;20214;-87
2022/01/05 06:30:39;;;;;;;26.00;6.50;;;3.70;99.90;;;;;;5010443;28;20218;-87
2022/01/05 06:33:06;;;;;;;20.43;6.23;;;3.70;99.90;;;;;;4996765;28;20211;-88
2022/01/05 06:35:35;;;;;;;22.83;5.87;;;3.60;99.90;;;;;;5024914;28;20241;-88
2022/01/05 06:38:02;;;;;;;23.17;6.53;;;3.60;99.90;;;;;;5004168;28;20215;-87
2022/01/05 06:40:30;;;;;;;27.97;6.40;;;3.60;99.90;;;;;;5009833;28;20211;-88
2022/01/05 06:42:59;;;;;;;22.20;4.83;;;3.70;99.90;;;;;;5012086;28;20214;-87
2022/01/05 06:45:26;;;;;;;21.77;5.60;;;3.70;99.90;;;;;;5014414;28;20289;-88
2022/01/05 06:47:53;;;;;;;30.57;7.50;;;3.90;99.90;;;;;;5009824;28;20210;-89
2022/01/05 06:50:19;;;;;;;24.80;5.47;;;3.70;99.90;;;;;;5032136;28;20394;-89
2022/01/05 06:52:46;;;;;;;33.07;6.93;;;3.90;99.90;;;;;;5040459;28;20222;-87
2022/01/05 06:55:13;;;;;;;33.53;7.00;;;3.70;99.90;;;;;;5004453;28;20285;-88
2022/01/05 06:57:42;;;;;;;30.63;6.67;;;3.70;99.90;;;;;;5018121;28;20215;-87
2022/01/05 07:00:10;;;;;;;25.17;5.33;;;4.10;99.90;;;;;;5021517;28;20211;-87
2022/01/05 07:02:37;;;;;;;20.63;6.10;;;3.70;99.90;;;;;;5012076;28;20234;-88
2022/01/05 07:05:05;;;;;;;21.27;5.30;;;3.70;99.90;;;;;;5025674;28;20288;-88
2022/01/05 07:07:32;;;;;;;24.87;6.77;;;3.70;99.90;;;;;;5026908;28;20678;-89
2022/01/05 07:09:59;;;;;;;23.23;5.83;;;3.70;99.90;;;;;;5040731;28;20687;-88
2022/01/05 07:12:26;;;;;;;20.33;5.50;;;5.60;99.90;;;;;;5028405;28;20202;-88
2022/01/05 07:14:54;;;;;;;15.83;4.53;;;3.70;99.90;;;;;;5017837;28;20210;-88
2022/01/05 07:17:22;;;;;;;26.03;6.17;;;3.70;99.90;;;;;;5011698;28;20218;-88
2022/01/05 07:19:48;;;;;;;18.47;5.13;;;3.60;99.90;;;;;;5010393;28;20214;-88
2022/01/05 07:22:15;;;;;;;21.23;5.67;;;5.60;99.90;;;;;;5008345;28;20254;-88
2022/01/05 07:24:42;;;;;;;22.60;6.10;;;4.30;99.90;;;;;;5005766;28;20218;-89
2022/01/05 07:27:10;;;;;;;29.20;5.87;;;3.60;99.90;;;;;;5007269;28;20207;-90
2022/01/05 07:29:37;;;;;;;27.40;6.93;;;3.60;99.90;;;;;;5008900;28;20225;-89
2022/01/05 07:32:06;;;;;;;29.00;6.70;;;3.60;99.90;;;;;;5024366;28;20226;-88
2022/01/05 07:34:33;;;;;;;35.23;7.10;;;3.60;99.90;;;;;;5007218;28;20217;-89
2022/01/05 07:37:00;;;;;;;25.73;6.23;;;5.50;99.90;;;;;;5004853;28;20222;-88
2022/01/05 07:39:27;;;;;;;22.60;5.57;;;3.70;99.90;;;;;;5011322;28;20210;-89
2022/01/05 07:41:55;;;;;;;23.33;6.43;;;3.70;99.90;;;;;;5004900;28;20222;-89
2022/01/05 07:44:23;;;;;;;21.27;5.60;;;3.70;99.90;;;;;;5012390;28;20214;-90
2022/01/05 07:46:51;;;;;;;22.73;6.07;;;3.70;99.90;;;;;;5029683;28;20213;-90
2022/01/05 07:49:23;;;;;;;23.27;5.50;;;5.30;99.90;;;;;;5006726;28;20206;-89
2022/01/05 07:51:51;;;;;;;25.70;5.93;;;3.70;99.90;;;;;;5008715;28;20238;-90
2022/01/05 07:54:18;;;;;;;17.33;5.10;;;3.70;99.90;;;;;;5007286;28;20211;-90
2022/01/05 07:56:45;;;;;;;15.63;5.13;;;4.40;99.90;;;;;;5023087;28;20956;-90
2022/01/05 07:59:12;;;;;;;25.07;5.97;;;3.80;99.90;;;;;;5007165;28;20217;-90
2022/01/05 08:01:39;;;;;;;24.20;5.17;;;3.80;99.90;;;;;;5007744;28;20280;-90
2022/01/05 08:04:06;;;;;;;26.87;6.30;;;4.80;99.90;;;;;;5012322;28;20219;-91
2022/01/05 08:06:34;;;;;;;25.93;5.63;;;4.00;99.90;;;;;;5009018;28;20211;-91
2022/01/05 08:09:01;;;;;;;21.20;6.00;;;5.00;99.90;;;;;;5014102;28;20219;-90
2022/01/05 08:11:27;;;;;;;19.13;4.97;;;3.90;99.90;;;;;;5030210;28;20226;-92
2022/01/05 08:13:54;;;;;;;26.27;6.83;;;4.00;99.90;;;;;;5019411;28;20211;-90
2022/01/05 08:16:21;;;;;;;21.53;6.00;;;4.00;99.90;;;;;;5024244;28;20198;-91
2022/01/05 08:18:49;;;;;;;20.60;5.33;;;4.10;99.90;;;;;;5030665;28;20226;-90
2022/01/05 08:21:17;;;;;;;16.13;4.23;;;4.10;99.90;;;;;;5024446;28;20242;-90
2022/01/05 08:23:46;;;;;;;22.20;5.60;;;4.20;99.90;;;;;;5017165;28;20321;-90
2022/01/05 08:26:19;;;;;;;14.70;4.10;;;4.20;99.90;;;;;;5005494;28;20241;-90
2022/01/05 08:28:48;;;;;;;16.00;4.37;;;4.30;99.90;;;;;;5026467;28;20209;-90
2022/01/05 08:31:15;;;;;;;21.30;5.83;;;4.40;99.90;;;;;;5026756;28;20223;-90
2022/01/05 08:33:42;;;;;;;24.03;5.60;;;4.40;99.90;;;;;;5010708;28;20226;-90
2022/01/05 08:36:09;;;;;;;21.53;5.00;;;4.40;99.90;;;;;;5024597;28;20209;-90
2022/01/05 08:38:37;;;;;;;23.80;5.10;;;4.50;99.90;;;;;;5015778;28;20745;-90
2022/01/05 08:41:06;;;;;;;21.07;5.00;;;4.50;99.90;;;;;;5006763;28;20231;-90
2022/01/05 08:43:33;;;;;;;26.93;5.97;;;4.50;99.90;;;;;;5004485;28;20263;-91
2022/01/05 08:46:03;;;;;;;18.23;4.80;;;4.60;99.90;;;;;;5012308;28;20912;-90
2022/01/05 08:48:36;;;;;;;21.80;5.70;;;5.10;99.90;;;;;;5011389;28;20203;-90
2022/01/05 08:51:04;;;;;;;24.30;6.30;;;4.50;99.90;;;;;;4993573;28;20242;-89
2022/01/05 08:53:31;;;;;;;23.50;6.00;;;4.50;99.90;;;;;;4995753;28;20211;-88
2022/01/05 08:55:58;;;;;;;25.97;6.03;;;4.60;99.90;;;;;;5010157;28;21463;-88
2022/01/05 08:58:26;;;;;;;20.67;5.77;;;4.60;99.90;;;;;;4998322;28;20223;-89
2022/01/05 09:00:53;;;;;;;18.13;5.00;;;4.80;99.90;;;;;;4988710;28;20242;-87
2022/01/05 09:03:21;;;;;;;21.63;6.43;;;4.80;99.90;;;;;;4987162;28;20232;-88
2022/01/05 09:05:48;;;;;;;20.90;6.07;;;4.80;99.90;;;;;;5008191;28;20894;-89
2022/01/05 09:08:15;;;;;;;28.53;6.60;;;4.90;99.90;;;;;;4995446;28;21011;-88
2022/01/05 09:10:43;;;;;;;35.60;7.07;;;4.90;99.90;;;;;;4994480;28;20289;-89
2022/01/05 09:13:10;;;;;;;24.47;6.33;;;4.90;99.90;;;;;;5013351;28;20215;-89
2022/01/05 09:15:41;;;;;;;22.20;5.67;;;5.00;99.90;;;;;;4995488;28;20378;-89
2022/01/05 09:18:08;;;;;;;19.00;6.53;;;5.00;99.90;;;;;;4997836;28;20242;-89
2022/01/05 09:20:35;;;;;;;26.13;7.30;;;5.00;99.90;;;;;;5006142;28;20309;-88
2022/01/05 09:23:03;;;;;;;24.37;6.17;;;5.10;99.90;;;;;;5011462;28;20714;-88
2022/01/05 09:25:30;;;;;;;26.10;7.73;;;5.10;99.90;;;;;;4991023;28;20819;-88
2022/01/05 09:28:14;;;;;;;26.53;5.50;;;5.20;99.90;;;;;;5009910;28;20206;-90
2022/01/05 09:30:45;;;;;;;17.07;5.20;;;6.10;99.90;;;;;;5017840;28;20211;-89
2022/01/05 09:33:14;;;;;;;19.80;6.33;;;6.00;99.90;;;;;;4997498;28;20691;-89
2022/01/05 09:35:41;;;;;;;25.33;7.03;;;5.20;99.90;;;;;;5008982;28;20221;-89
2022/01/05 09:38:20;;;;;;;22.20;6.53;;;5.30;99.90;;;;;;5006786;28;20293;-89
2022/01/05 09:43:51;;;;;;;34.10;8.03;;;5.50;99.90;;;;;;5004999;28;20361;-89
2022/01/05 09:46:30;;;;;;;20.50;6.67;;;5.70;99.90;;;;;;4990256;28;20215;-89
2022/01/05 09:49:03;;;;;;;19.90;6.13;;;6.60;99.90;;;;;;4999755;28;20210;-89
2022/01/05 09:51:32;;;;;;;27.10;7.30;;;6.50;99.90;;;;;;5009644;28;20231;-89
2022/01/05 09:54:02;;;;;;;23.63;7.53;;;6.10;99.90;;;;;;5018183;28;20218;-89
2022/01/05 09:56:31;;;;;;;24.60;7.03;;;6.20;99.90;;;;;;5004114;28;20218;-89
2022/01/05 09:59:00;;;;;;;19.27;6.07;;;6.70;99.90;;;;;;5001839;28;20305;-89
2022/01/05 10:01:30;;;;;;;21.43;7.10;;;6.30;99.90;;;;;;5013825;28;20259;-89
2022/01/05 10:03:58;;;;;;;25.47;6.67;;;6.40;99.90;;;;;;5025455;28;20203;-89
2022/01/05 10:06:25;;;;;;;23.27;8.57;;;6.30;99.90;;;;;;5014963;28;20206;-89
2022/01/05 10:08:52;;;;;;;23.30;7.10;;;6.30;99.90;;;;;;5002726;28;20199;-90
2022/01/05 10:11:22;;;;;;;20.57;6.00;;;6.50;99.90;;;;;;5001915;28;20239;-90
2022/01/05 10:13:50;;;;;;;22.40;6.27;;;6.10;99.90;;;;;;5013916;28;20602;-90
2022/01/05 10:16:17;;;;;;;27.00;7.43;;;6.00;99.90;;;;;;5006124;28;20210;-89
2022/01/05 10:18:46;;;;;;;16.50;5.03;;;5.90;99.90;;;;;;5003772;28;20227;-89
2022/01/05 10:21:15;;;;;;;20.30;5.63;;;5.80;99.90;;;;;;5007179;28;20243;-89
2022/01/05 10:23:46;;;;;;;16.50;5.03;;;5.70;99.90;;;;;;5002468;28;20230;-90
2022/01/05 10:26:28;;;;;;;24.37;7.43;;;5.70;99.90;;;;;;5010756;28;20241;-90
2022/01/05 10:28:57;;;;;;;20.80;6.57;;;5.80;99.90;;;;;;5011729;28;20204;-90
2022/01/05 10:31:28;;;;;;;22.53;6.60;;;6.00;99.90;;;;;;5011773;28;20238;-89
2022/01/05 10:33:57;;;;;;;25.43;7.83;;;6.00;99.90;;;;;;5024642;28;20203;-89
2022/01/05 10:36:25;;;;;;;15.07;6.13;;;5.60;99.90;;;;;;5026569;28;20217;-88
2022/01/05 10:38:54;;;;;;;32.57;8.93;;;5.70;99.90;;;;;;5010604;28;20202;-88
2022/01/05 10:41:23;;;;;;;21.23;6.87;;;5.70;99.90;;;;;;5027792;28;20824;-88
2022/01/05 10:44:12;;;;;;;22.37;6.87;;;5.80;99.90;;;;;;5026472;28;20666;-89
2022/01/05 10:46:42;;;;;;;25.17;8.77;;;5.90;99.90;;;;;;5012318;28;20218;-89
2022/01/05 10:49:21;;;;;;;22.43;6.70;;;6.10;99.90;;;;;;5024945;28;20207;-90
2022/01/05 10:51:48;;;;;;;19.17;6.97;;;6.00;99.90;;;;;;5010884;28;20253;-88
2022/01/05 10:54:17;;;;;;;21.23;5.80;;;5.90;99.90;;;;;;5008937;28;20210;-87
2022/01/05 10:56:45;;;;;;;23.73;6.77;;;5.90;99.90;;;;;;5021731;28;20216;-88
2022/01/05 10:59:14;;;;;;;19.33;6.17;;;5.90;99.90;;;;;;5006501;28;20219;-89
2022/01/05 11:01:43;;;;;;;23.13;6.50;;;5.80;99.90;;;;;;5003988;28;20227;-88
2022/01/05 11:04:23;;;;;;;22.00;5.93;;;5.70;99.90;;;;;;5009695;28;20226;-89
2022/01/05 11:07:03;;;;;;;19.20;6.23;;;5.70;99.90;;;;;;5007668;28;20232;-89
2022/01/05 11:09:32;;;;;;;20.40;7.00;;;6.10;99.90;;;;;;4999305;28;21440;-88
2022/01/05 11:12:00;;;;;;;28.63;8.47;;;5.60;99.90;;;;;;5012770;28;20235;-89
2022/01/05 11:14:31;;;;;;;24.93;6.73;;;5.60;99.90;;;;;;5012074;28;20487;-88
2022/01/05 11:17:00;;;;;;;18.73;6.60;;;5.70;99.90;;;;;;5011359;28;20218;-88
2022/01/05 11:19:29;;;;;;;19.47;6.83;;;5.80;99.90;;;;;;5008864;28;20212;-89
2022/01/05 11:22:00;;;;;;;19.67;6.03;;;5.90;99.90;;;;;;5011531;28;20235;-87
2022/01/05 11:24:29;;;;;;;20.07;6.17;;;6.10;99.90;;;;;;5023422;28;20222;-89
2022/01/05 11:26:57;;;;;;;23.57;7.13;;;5.90;99.90;;;;;;5005262;28;20219;-89
2022/01/05 11:29:25;;;;;;;21.27;6.10;;;5.80;99.90;;;;;;5010625;28;20211;-89
2022/01/05 11:31:54;;;;;;;21.63;7.47;;;5.80;99.90;;;;;;5004845;28;20234;-89
2022/01/05 11:34:21;;;;;;;23.53;7.67;;;7.10;99.90;;;;;;5008365;28;20574;-88
2022/01/05 11:36:50;;;;;;;26.87;7.03;;;6.00;99.90;;;;;;5020497;28;20223;-89
2022/01/05 11:39:16;;;;;;;22.50;7.93;;;6.00;99.90;;;;;;5008441;28;20215;-89
2022/01/05 11:41:48;;;;;;;25.67;8.10;;;6.00;99.90;;;;;;5019456;28;20237;-91
2022/01/05 11:44:16;;;;;;;23.93;7.77;;;6.20;99.90;;;;;;5020619;28;20225;-88
2022/01/05 11:46:46;;;;;;;18.30;6.23;;;6.00;99.90;;;;;;5008078;28;20215;-91
2022/01/05 11:49:15;;;;;;;20.80;6.67;;;5.90;99.90;;;;;;5005205;28;20227;-89
2022/01/05 11:51:52;;;;;;;21.67;6.93;;;6.00;99.90;;;;;;5006122;28;20581;-90
2022/01/05 11:54:21;;;;;;;18.60;6.13;;;6.00;99.90;;;;;;5007888;28;20582;-89
2022/01/05 11:56:51;;;;;;;22.53;7.27;;;6.00;99.90;;;;;;5009700;28;20217;-89
2022/01/05 11:59:33;;;;;;;16.23;4.90;;;6.10;99.90;;;;;;5009389;28;20221;-90
2022/01/05 12:02:11;;;;;;;24.93;7.83;;;6.20;99.90;;;;;;5006075;28;20234;-91
2022/01/05 12:05:00;;;;;;;20.90;6.97;;;6.30;99.90;;;;;;5012763;28;20613;-88
2022/01/05 12:07:43;;;;;;;20.73;7.53;;;6.40;99.90;;;;;;5022345;28;20207;-88
2022/01/05 12:10:13;;;;;;;25.97;8.13;;;6.80;99.90;;;;;;5004274;28;20215;-89
2022/01/05 12:12:54;;;;;;;21.83;6.80;;;6.50;99.90;;;;;;5028657;28;20234;-90
2022/01/05 12:15:44;;;;;;;22.30;6.90;;;6.70;99.90;;;;;;5004189;28;20221;-90
2022/01/05 12:18:20;;;;;;;21.97;6.37;;;6.70;99.90;;;;;;5022535;28;20741;-89
2022/01/05 12:20:47;;;;;;;20.07;5.47;;;6.50;99.90;;;;;;5007818;28;20207;-89
2022/01/05 12:23:18;;;;;;;29.67;6.17;;;6.50;99.90;;;;;;5014092;28;20230;-89
2022/01/05 12:26:16;;;;;;;17.90;5.43;;;6.40;99.90;;;;;;5009391;28;20214;-89
2022/01/05 12:28:55;;;;;;;21.03;5.67;;;6.30;99.90;;;;;;5015256;28;20213;-89
2022/01/05 12:31:57;;;;;;;14.87;4.47;;;6.80;99.90;;;;;;5010200;28;20242;-89
2022/01/05 12:34:54;;;;;;;26.33;6.47;;;6.30;99.90;;;;;;5003464;28;20225;-88
2022/01/05 12:37:58;;;;;;;24.90;5.23;;;6.40;99.90;;;;;;5007425;28;20217;-89
2022/01/05 12:40:35;;;;;;;22.07;5.73;;;6.40;99.90;;;;;;4945123;28;20958;-89
2022/01/05 12:43:35;;;;;;;18.53;5.40;;;6.40;99.90;;;;;;4950179;28;20232;-89
2022/01/05 12:46:08;;;;;;;14.53;4.47;;;6.40;99.90;;;;;;4982835;28;20325;-89
2022/01/05 12:48:59;;;;;;;25.57;5.37;;;6.40;99.90;;;;;;5008594;28;20214;-88
2022/01/05 12:51:44;;;;;;;15.97;5.30;;;6.40;99.90;;;;;;5023141;28;20239;-88
2022/01/05 12:54:17;;;;;;;21.03;4.80;;;6.40;99.90;;;;;;5007982;28;20209;-89
2022/01/05 12:56:49;;;;;;;16.83;5.10;;;6.40;99.90;;;;;;5002173;28;20212;-90
2022/01/05 12:59:21;;;;;;;19.83;5.10;;;6.50;99.90;;;;;;5003204;28;20663;-88